sensor_id;sensor_type;location;lat;lon;timestamp;temperature;humidity
20045;DHT22;10183;47.808;9.476;2023-11-21T00:02:25;7.00;99.90
20045;DHT22;10183;47.808;9.476;2023-11-21T00:05:13;6.90;99.90
20045;DHT22;10183;47.808;9.476;2023-11-21T00:08:00;6.80;99.90
20045;DHT22;10183;47.808;9.476;2023-11-21T00:10:46;6.70;99.90
20045;DHT22;10183;47.808;9.476;2023-11-21T00:13:32;6.80;99.90
20045;DHT22;10183;47.808;9.476;2023-11-21T00:16:18;6.70;99.90
20045;DHT22;10183;47.808;9.476;2023-11-21T00:19:04;6.60;99.90
20045;DHT22;10183;47.808;9.476;2023-11-21T00:21:50;6.50;99.90
20045;DHT22;10183;47.808;9.476;2023-11-21T00:24:36;6.40;99.90
20045;DHT22;10183;47.808;9.476;2023-11-21T00:27:22;6.40;99.90
20045;DHT22;10183;47.808;9.476;2023-11-21T00:30:08;6.40;99.90
20045;DHT22;10183;47.808;9.476;2023-11-21T00:32:54;6.30;99.90
20045;DHT22;10183;47.808;9.476;2023-11-21T00:35:40;6.30;99.90
20045;DHT22;10183;47.808;9.476;2023-11-21T00:38:26;6.20;99.90
20045;DHT22;10183;47.808;9.476;2023-11-21T00:41:12;6.10;99.90
20045;DHT22;10183;47.808;9.476;2023-11-21T00:43:58;6.10;99.90
20045;DHT22;10183;47.808;9.476;2023-11-21T00:46:45;6.10;99.90
20045;DHT22;10183;47.808;9.476;2023-11-21T00:49:32;6.10;99.90
20045;DHT22;10183;47.808;9.476;2023-11-21T00:52:18;6.10;99.90
20045;DHT22;10183;47.808;9.476;2023-11-21T00:55:07;6.10;99.90
20045;DHT22;10183;47.808;9.476;2023-11-21T00:57:53;6.10;99.90
20045;DHT22;10183;47.808;9.476;2023-11-21T01:00:39;6.10;99.90
20045;DHT22;10183;47.808;9.476;2023-11-21T01:03:25;6.00;99.90
20045;DHT22;10183;47.808;9.476;2023-11-21T01:06:11;6.00;99.90
20045;DHT22;10183;47.808;9.476;2023-11-21T01:08:57;5.90;99.90
20045;DHT22;10183;47.808;9.476;2023-11-21T01:11:43;6.00;99.90
20045;DHT22;10183;47.808;9.476;2023-11-21T01:14:29;6.00;99.90
20045;DHT22;10183;47.808;9.476;2023-11-21T01:17:15;6.00;99.90
20045;DHT22;10183;47.808;9.476;2023-11-21T01:20:02;6.00;99.90
20045;DHT22;10183;47.808;9.476;2023-11-21T01:22:49;6.10;99.90
20045;DHT22;10183;47.808;9.476;2023-11-21T01:25:35;6.00;99.90
20045;DHT22;10183;47.808;9.476;2023-11-21T01:28:21;6.00;99.90
20045;DHT22;10183;47.808;9.476;2023-11-21T01:31:07;6.10;99.90
20045;DHT22;10183;47.808;9.476;2023-11-21T01:33:53;6.10;99.90
20045;DHT22;10183;47.808;9.476;2023-11-21T01:36:39;6.10;99.90
20045;DHT22;10183;47.808;9.476;2023-11-21T01:39:25;6.10;99.90
20045;DHT22;10183;47.808;9.476;2023-11-21T01:42:12;6.00;99.90
20045;DHT22;10183;47.808;9.476;2023-11-21T01:44:58;6.10;99.90
20045;DHT22;10183;47.808;9.476;2023-11-21T01:47:45;6.00;99.90
20045;DHT22;10183;47.808;9.476;2023-11-21T01:50:31;6.00;99.90
20045;DHT22;10183;47.808;9.476;2023-11-21T01:53:17;6.00;99.90
20045;DHT22;10183;47.808;9.476;2023-11-21T01:56:04;6.00;99.90
20045;DHT22;10183;47.808;9.476;2023-11-21T01:58:50;6.00;99.90
20045;DHT22;10183;47.808;9.476;2023-11-21T02:01:37;6.00;99.90
20045;DHT22;10183;47.808;9.476;2023-11-21T02:04:23;6.10;99.90
20045;DHT22;10183;47.808;9.476;2023-11-21T02:07:08;6.00;99.90
20045;DHT22;10183;47.808;9.476;2023-11-21T02:09:56;6.10;99.90
20045;DHT22;10183;47.808;9.476;2023-11-21T02:12:42;6.10;99.90
20045;DHT22;10183;47.808;9.476;2023-11-21T02:15:28;6.00;99.90
20045;DHT22;10183;47.808;9.476;2023-11-21T02:18:15;6.00;99.90
20045;DHT22;10183;47.808;9.476;2023-11-21T02:21:01;6.00;99.90
20045;DHT22;10183;47.808;9.476;2023-11-21T02:23:49;6.00;99.90
20045;DHT22;10183;47.808;9.476;2023-11-21T02:26:37;6.00;99.90
20045;DHT22;10183;47.808;9.476;2023-11-21T02:29:23;6.00;99.90
20045;DHT22;10183;47.808;9.476;2023-11-21T02:32:13;6.00;99.90
20045;DHT22;10183;47.808;9.476;2023-11-21T02:35:00;5.90;99.90
20045;DHT22;10183;47.808;9.476;2023-11-21T02:37:50;5.90;99.90
20045;DHT22;10183;47.808;9.476;2023-11-21T02:40:36;6.00;99.90
20045;DHT22;10183;47.808;9.476;2023-11-21T02:43:22;6.00;99.90
20045;DHT22;10183;47.808;9.476;2023-11-21T02:46:08;5.90;99.90
20045;DHT22;10183;47.808;9.476;2023-11-21T02:48:54;6.00;99.90
20045;DHT22;10183;47.808;9.476;2023-11-21T02:51:40;6.00;99.90
20045;DHT22;10183;47.808;9.476;2023-11-21T02:54:26;5.90;99.90
20045;DHT22;10183;47.808;9.476;2023-11-21T02:57:13;5.80;99.90
20045;DHT22;10183;47.808;9.476;2023-11-21T02:59:59;5.80;99.90
20045;DHT22;10183;47.808;9.476;2023-11-21T03:02:45;5.80;99.90
20045;DHT22;10183;47.808;9.476;2023-11-21T03:05:33;5.80;99.90
20045;DHT22;10183;47.808;9.476;2023-11-21T03:08:21;5.80;99.90
20045;DHT22;10183;47.808;9.476;2023-11-21T03:11:07;5.80;99.90
20045;DHT22;10183;47.808;9.476;2023-11-21T03:13:53;5.80;99.90
20045;DHT22;10183;47.808;9.476;2023-11-21T03:16:39;5.80;99.90
20045;DHT22;10183;47.808;9.476;2023-11-21T03:19:26;5.80;99.90
20045;DHT22;10183;47.808;9.476;2023-11-21T03:22:12;5.70;99.90
20045;DHT22;10183;47.808;9.476;2023-11-21T03:24:58;5.70;99.90
20045;DHT22;10183;47.808;9.476;2023-11-21T03:27:44;5.70;99.90
20045;DHT22;10183;47.808;9.476;2023-11-21T03:30:30;5.70;99.90
20045;DHT22;10183;47.808;9.476;2023-11-21T03:33:16;5.70;99.90
20045;DHT22;10183;47.808;9.476;2023-11-21T03:36:03;5.70;99.90
20045;DHT22;10183;47.808;9.476;2023-11-21T03:38:49;5.70;99.90
20045;DHT22;10183;47.808;9.476;2023-11-21T03:41:35;5.60;99.90
20045;DHT22;10183;47.808;9.476;2023-11-21T03:44:21;5.50;99.90
20045;DHT22;10183;47.808;9.476;2023-11-21T03:47:08;5.40;99.90
20045;DHT22;10183;47.808;9.476;2023-11-21T03:49:54;5.40;99.90
20045;DHT22;10183;47.808;9.476;2023-11-21T03:52:39;5.40;99.90
20045;DHT22;10183;47.808;9.476;2023-11-21T03:55:25;5.40;99.90
20045;DHT22;10183;47.808;9.476;2023-11-21T03:58:11;5.40;99.90
20045;DHT22;10183;47.808;9.476;2023-11-21T04:00:58;5.40;99.90
20045;DHT22;10183;47.808;9.476;2023-11-21T04:03:44;5.40;99.90
20045;DHT22;10183;47.808;9.476;2023-11-21T04:06:30;5.40;99.90
20045;DHT22;10183;47.808;9.476;2023-11-21T04:09:16;5.40;99.90
20045;DHT22;10183;47.808;9.476;2023-11-21T04:12:02;5.40;99.90
20045;DHT22;10183;47.808;9.476;2023-11-21T04:14:48;5.40;99.90
20045;DHT22;10183;47.808;9.476;2023-11-21T04:17:34;5.40;99.90
20045;DHT22;10183;47.808;9.476;2023-11-21T04:20:20;5.50;99.90
20045;DHT22;10183;47.808;9.476;2023-11-21T04:23:09;5.40;99.90
20045;DHT22;10183;47.808;9.476;2023-11-21T04:25:56;5.40;99.90
20045;DHT22;10183;47.808;9.476;2023-11-21T04:28:42;5.40;99.90
20045;DHT22;10183;47.808;9.476;2023-11-21T04:31:28;5.40;99.90
20045;DHT22;10183;47.808;9.476;2023-11-21T04:34:15;5.40;99.90
20045;DHT22;10183;47.808;9.476;2023-11-21T04:37:01;5.30;99.90
20045;DHT22;10183;47.808;9.476;2023-11-21T04:39:47;5.40;99.90
20045;DHT22;10183;47.808;9.476;2023-11-21T04:42:36;5.40;99.90
20045;DHT22;10183;47.808;9.476;2023-11-21T04:45:23;5.30;99.90
20045;DHT22;10183;47.808;9.476;2023-11-21T04:48:08;5.40;99.90
20045;DHT22;10183;47.808;9.476;2023-11-21T04:50:55;5.30;99.90
20045;DHT22;10183;47.808;9.476;2023-11-21T04:53:41;5.30;99.90
20045;DHT22;10183;47.808;9.476;2023-11-21T04:56:27;5.30;99.90
20045;DHT22;10183;47.808;9.476;2023-11-21T04:59:13;5.20;99.90
20045;DHT22;10183;47.808;9.476;2023-11-21T05:01:59;5.20;99.90
20045;DHT22;10183;47.808;9.476;2023-11-21T05:04:46;5.20;99.90
20045;DHT22;10183;47.808;9.476;2023-11-21T05:07:32;5.00;99.90
20045;DHT22;10183;47.808;9.476;2023-11-21T05:10:18;5.10;99.90
20045;DHT22;10183;47.808;9.476;2023-11-21T05:13:04;5.00;99.90
20045;DHT22;10183;47.808;9.476;2023-11-21T05:15:50;5.10;99.90
20045;DHT22;10183;47.808;9.476;2023-11-21T05:18:36;5.10;99.90
20045;DHT22;10183;47.808;9.476;2023-11-21T05:21:22;5.10;99.90
20045;DHT22;10183;47.808;9.476;2023-11-21T05:24:09;5.20;99.90
20045;DHT22;10183;47.808;9.476;2023-11-21T05:26:55;5.00;99.90
20045;DHT22;10183;47.808;9.476;2023-11-21T05:29:41;5.10;99.90
20045;DHT22;10183;47.808;9.476;2023-11-21T05:32:27;5.10;99.90
20045;DHT22;10183;47.808;9.476;2023-11-21T05:35:13;5.10;99.90
20045;DHT22;10183;47.808;9.476;2023-11-21T05:38:01;5.20;99.90
20045;DHT22;10183;47.808;9.476;2023-11-21T05:40:47;5.20;99.90
20045;DHT22;10183;47.808;9.476;2023-11-21T05:43:33;5.20;99.90
20045;DHT22;10183;47.808;9.476;2023-11-21T05:46:21;5.30;99.90
20045;DHT22;10183;47.808;9.476;2023-11-21T05:49:07;5.40;99.90
20045;DHT22;10183;47.808;9.476;2023-11-21T05:51:54;5.40;99.90
20045;DHT22;10183;47.808;9.476;2023-11-21T05:54:40;5.40;99.90
20045;DHT22;10183;47.808;9.476;2023-11-21T05:57:27;5.40;99.90
20045;DHT22;10183;47.808;9.476;2023-11-21T06:00:14;5.40;99.90
20045;DHT22;10183;47.808;9.476;2023-11-21T06:03:11;5.30;99.90
20045;DHT22;10183;47.808;9.476;2023-11-21T06:05:58;5.30;99.90
20045;DHT22;10183;47.808;9.476;2023-11-21T06:08:44;5.30;99.90
20045;DHT22;10183;47.808;9.476;2023-11-21T06:11:30;5.30;99.90
20045;DHT22;10183;47.808;9.476;2023-11-21T06:14:16;5.30;99.90
20045;DHT22;10183;47.808;9.476;2023-11-21T06:17:03;5.40;99.90
20045;DHT22;10183;47.808;9.476;2023-11-21T06:19:49;5.50;99.90
20045;DHT22;10183;47.808;9.476;2023-11-21T06:22:37;5.40;99.90
20045;DHT22;10183;47.808;9.476;2023-11-21T06:25:23;5.40;99.90
20045;DHT22;10183;47.808;9.476;2023-11-21T06:28:09;5.40;99.90
20045;DHT22;10183;47.808;9.476;2023-11-21T06:30:56;5.40;99.90
20045;DHT22;10183;47.808;9.476;2023-11-21T06:33:43;5.40;99.90
20045;DHT22;10183;47.808;9.476;2023-11-21T06:36:29;5.40;99.90
20045;DHT22;10183;47.808;9.476;2023-11-21T06:39:15;5.30;99.90
20045;DHT22;10183;47.808;9.476;2023-11-21T06:42:02;5.40;99.90
20045;DHT22;10183;47.808;9.476;2023-11-21T06:44:50;5.30;99.90
20045;DHT22;10183;47.808;9.476;2023-11-21T06:47:39;5.30;99.90
20045;DHT22;10183;47.808;9.476;2023-11-21T06:50:25;5.40;99.90
20045;DHT22;10183;47.808;9.476;2023-11-21T06:53:11;5.40;99.90
20045;DHT22;10183;47.808;9.476;2023-11-21T06:55:57;5.30;99.90
20045;DHT22;10183;47.808;9.476;2023-11-21T06:58:45;5.30;99.90
20045;DHT22;10183;47.808;9.476;2023-11-21T07:01:31;5.30;99.90
20045;DHT22;10183;47.808;9.476;2023-11-21T07:04:20;5.30;99.90
20045;DHT22;10183;47.808;9.476;2023-11-21T07:07:06;5.30;99.90
20045;DHT22;10183;47.808;9.476;2023-11-21T07:09:55;5.30;99.90
20045;DHT22;10183;47.808;9.476;2023-11-21T07:12:41;5.30;99.90
20045;DHT22;10183;47.808;9.476;2023-11-21T07:15:27;5.40;99.90
20045;DHT22;10183;47.808;9.476;2023-11-21T07:18:14;5.40;99.90
20045;DHT22;10183;47.808;9.476;2023-11-21T07:20:59;5.40;99.90
20045;DHT22;10183;47.808;9.476;2023-11-21T07:23:45;5.40;99.90
20045;DHT22;10183;47.808;9.476;2023-11-21T07:26:32;5.40;99.90
20045;DHT22;10183;47.808;9.476;2023-11-21T07:29:19;5.50;99.90
20045;DHT22;10183;47.808;9.476;2023-11-21T07:32:05;5.50;99.90
20045;DHT22;10183;47.808;9.476;2023-11-21T07:34:51;5.50;99.90
20045;DHT22;10183;47.808;9.476;2023-11-21T07:37:37;5.60;99.90
20045;DHT22;10183;47.808;9.476;2023-11-21T07:40:23;5.60;99.90
20045;DHT22;10183;47.808;9.476;2023-11-21T07:43:09;5.60;99.90
20045;DHT22;10183;47.808;9.476;2023-11-21T07:45:56;5.70;99.90
20045;DHT22;10183;47.808;9.476;2023-11-21T07:48:42;5.70;99.90
20045;DHT22;10183;47.808;9.476;2023-11-21T07:51:28;5.70;99.90
20045;DHT22;10183;47.808;9.476;2023-11-21T07:54:14;5.70;99.90
20045;DHT22;10183;47.808;9.476;2023-11-21T07:57:01;5.80;99.90
20045;DHT22;10183;47.808;9.476;2023-11-21T07:59:49;5.80;99.90
20045;DHT22;10183;47.808;9.476;2023-11-21T08:02:35;5.80;99.90
20045;DHT22;10183;47.808;9.476;2023-11-21T08:05:21;5.80;99.90
20045;DHT22;10183;47.808;9.476;2023-11-21T08:08:08;5.80;99.90
20045;DHT22;10183;47.808;9.476;2023-11-21T08:10:54;5.80;99.90
20045;DHT22;10183;47.808;9.476;2023-11-21T08:13:42;5.80;99.90
20045;DHT22;10183;47.808;9.476;2023-11-21T08:16:28;5.80;99.90
20045;DHT22;10183;47.808;9.476;2023-11-21T08:19:14;5.80;99.90
20045;DHT22;10183;47.808;9.476;2023-11-21T08:22:02;5.90;99.90
20045;DHT22;10183;47.808;9.476;2023-11-21T08:24:48;5.80;99.90
20045;DHT22;10183;47.808;9.476;2023-11-21T08:27:35;5.90;99.90
20045;DHT22;10183;47.808;9.476;2023-11-21T08:30:21;5.90;99.90
20045;DHT22;10183;47.808;9.476;2023-11-21T08:33:09;5.90;99.90
20045;DHT22;10183;47.808;9.476;2023-11-21T08:35:56;6.00;99.90
20045;DHT22;10183;47.808;9.476;2023-11-21T08:38:42;6.10;99.90
20045;DHT22;10183;47.808;9.476;2023-11-21T08:41:28;6.10;99.90
20045;DHT22;10183;47.808;9.476;2023-11-21T08:44:14;6.20;99.90
20045;DHT22;10183;47.808;9.476;2023-11-21T08:47:02;6.50;99.90
20045;DHT22;10183;47.808;9.476;2023-11-21T08:49:49;6.70;99.90
20045;DHT22;10183;47.808;9.476;2023-11-21T08:52:39;6.30;99.90
20045;DHT22;10183;47.808;9.476;2023-11-21T08:55:26;6.30;99.90
20045;DHT22;10183;47.808;9.476;2023-11-21T08:58:13;6.30;99.90
20045;DHT22;10183;47.808;9.476;2023-11-21T09:00:59;6.30;99.90
20045;DHT22;10183;47.808;9.476;2023-11-21T09:03:45;6.30;99.90
20045;DHT22;10183;47.808;9.476;2023-11-21T09:06:31;6.40;99.90
20045;DHT22;10183;47.808;9.476;2023-11-21T09:09:17;6.60;99.90
20045;DHT22;10183;47.808;9.476;2023-11-21T09:12:03;6.50;99.90
20045;DHT22;10183;47.808;9.476;2023-11-21T09:14:50;6.50;99.90
20045;DHT22;10183;47.808;9.476;2023-11-21T09:17:36;6.50;99.90
20045;DHT22;10183;47.808;9.476;2023-11-21T09:20:22;6.70;99.90
20045;DHT22;10183;47.808;9.476;2023-11-21T09:23:08;6.60;99.90
20045;DHT22;10183;47.808;9.476;2023-11-21T09:25:54;6.60;99.90
20045;DHT22;10183;47.808;9.476;2023-11-21T09:28:44;6.80;99.90
20045;DHT22;10183;47.808;9.476;2023-11-21T09:31:32;6.90;99.90
20045;DHT22;10183;47.808;9.476;2023-11-21T09:34:19;6.70;99.90
20045;DHT22;10183;47.808;9.476;2023-11-21T09:37:07;6.80;99.90
20045;DHT22;10183;47.808;9.476;2023-11-21T09:39:53;6.70;99.90
20045;DHT22;10183;47.808;9.476;2023-11-21T09:42:43;7.00;99.90
20045;DHT22;10183;47.808;9.476;2023-11-21T09:45:35;6.90;99.90
20045;DHT22;10183;47.808;9.476;2023-11-21T09:48:22;7.00;99.90
20045;DHT22;10183;47.808;9.476;2023-11-21T09:51:11;7.30;99.90
20045;DHT22;10183;47.808;9.476;2023-11-21T09:53:59;7.60;99.90
20045;DHT22;10183;47.808;9.476;2023-11-21T09:56:45;7.80;99.90
20045;DHT22;10183;47.808;9.476;2023-11-21T09:59:32;7.60;99.90
20045;DHT22;10183;47.808;9.476;2023-11-21T10:02:19;7.70;99.90
20045;DHT22;10183;47.808;9.476;2023-11-21T10:05:06;7.60;99.90
20045;DHT22;10183;47.808;9.476;2023-11-21T10:07:56;7.40;99.90
20045;DHT22;10183;47.808;9.476;2023-11-21T10:10:45;7.80;99.90
20045;DHT22;10183;47.808;9.476;2023-11-21T10:13:31;8.00;99.90
20045;DHT22;10183;47.808;9.476;2023-11-21T10:16:19;8.00;99.90
20045;DHT22;10183;47.808;9.476;2023-11-21T10:19:10;8.30;99.90
20045;DHT22;10183;47.808;9.476;2023-11-21T10:21:56;8.20;99.90
20045;DHT22;10183;47.808;9.476;2023-11-21T10:24:45;7.70;99.90
20045;DHT22;10183;47.808;9.476;2023-11-21T10:27:31;7.70;99.90
20045;DHT22;10183;47.808;9.476;2023-11-21T10:30:17;8.70;99.90
20045;DHT22;10183;47.808;9.476;2023-11-21T10:33:07;10.30;99.90
20045;DHT22;10183;47.808;9.476;2023-11-21T10:35:56;12.30;99.90
20045;DHT22;10183;47.808;9.476;2023-11-21T10:38:43;11.40;99.90
20045;DHT22;10183;47.808;9.476;2023-11-21T10:41:30;9.30;99.90
20045;DHT22;10183;47.808;9.476;2023-11-21T10:44:17;8.40;99.90
20045;DHT22;10183;47.808;9.476;2023-11-21T10:47:08;7.80;99.90
20045;DHT22;10183;47.808;9.476;2023-11-21T10:49:57;7.60;99.90
20045;DHT22;10183;47.808;9.476;2023-11-21T10:52:46;7.60;99.90
20045;DHT22;10183;47.808;9.476;2023-11-21T10:55:33;7.40;99.90
20045;DHT22;10183;47.808;9.476;2023-11-21T10:58:20;7.40;99.90
20045;DHT22;10183;47.808;9.476;2023-11-21T11:01:07;7.60;99.90
20045;DHT22;10183;47.808;9.476;2023-11-21T11:03:53;7.90;99.90
20045;DHT22;10183;47.808;9.476;2023-11-21T11:06:44;8.10;99.90
20045;DHT22;10183;47.808;9.476;2023-11-21T11:09:31;8.10;99.90
20045;DHT22;10183;47.808;9.476;2023-11-21T11:12:20;8.10;99.90
20045;DHT22;10183;47.808;9.476;2023-11-21T11:15:08;8.00;99.90
20045;DHT22;10183;47.808;9.476;2023-11-21T11:17:55;7.90;99.90
20045;DHT22;10183;47.808;9.476;2023-11-21T11:20:44;7.90;99.90
20045;DHT22;10183;47.808;9.476;2023-11-21T11:36:37;7.30;99.90
20045;DHT22;10183;47.808;9.476;2023-11-21T11:39:30;7.40;99.90
20045;DHT22;10183;47.808;9.476;2023-11-21T11:42:19;7.50;99.90
20045;DHT22;10183;47.808;9.476;2023-11-21T11:45:18;7.70;99.90
20045;DHT22;10183;47.808;9.476;2023-11-21T11:48:06;7.70;99.90
20045;DHT22;10183;47.808;9.476;2023-11-21T11:51:07;7.70;99.90
20045;DHT22;10183;47.808;9.476;2023-11-21T11:53:55;7.50;99.90
20045;DHT22;10183;47.808;9.476;2023-11-21T11:56:41;7.50;99.90
20045;DHT22;10183;47.808;9.476;2023-11-21T11:59:27;7.40;99.90
20045;DHT22;10183;47.808;9.476;2023-11-21T12:02:13;7.50;99.90
20045;DHT22;10183;47.808;9.476;2023-11-21T12:05:00;7.40;99.90
20045;DHT22;10183;47.808;9.476;2023-11-21T12:07:50;7.30;99.90
20045;DHT22;10183;47.808;9.476;2023-11-21T12:10:39;7.30;99.90
20045;DHT22;10183;47.808;9.476;2023-11-21T12:13:27;7.30;99.90
20045;DHT22;10183;47.808;9.476;2023-11-21T12:16:14;7.60;99.90
20045;DHT22;10183;47.808;9.476;2023-11-21T12:19:00;9.20;99.90
20045;DHT22;10183;47.808;9.476;2023-11-21T12:21:46;10.90;99.90
20045;DHT22;10183;47.808;9.476;2023-11-21T12:24:33;8.70;99.90
20045;DHT22;10183;47.808;9.476;2023-11-21T12:27:20;8.20;99.90
20045;DHT22;10183;47.808;9.476;2023-11-21T12:30:07;7.80;99.90
20045;DHT22;10183;47.808;9.476;2023-11-21T12:32:59;7.50;99.90
20045;DHT22;10183;47.808;9.476;2023-11-21T12:35:49;7.40;99.90
20045;DHT22;10183;47.808;9.476;2023-11-21T12:38:35;9.00;99.90
20045;DHT22;10183;47.808;9.476;2023-11-21T12:41:22;10.70;99.90
20045;DHT22;10183;47.808;9.476;2023-11-21T12:44:12;10.20;99.90
20045;DHT22;10183;47.808;9.476;2023-11-21T12:47:01;9.60;99.90
20045;DHT22;10183;47.808;9.476;2023-11-21T12:49:47;8.80;99.90
20045;DHT22;10183;47.808;9.476;2023-11-21T12:52:34;8.20;99.90
20045;DHT22;10183;47.808;9.476;2023-11-21T12:55:22;7.80;99.90
20045;DHT22;10183;47.808;9.476;2023-11-21T12:58:09;7.80;99.90
20045;DHT22;10183;47.808;9.476;2023-11-21T13:00:57;7.70;99.90
20045;DHT22;10183;47.808;9.476;2023-11-21T13:03:49;7.60;99.90
20045;DHT22;10183;47.808;9.476;2023-11-21T13:06:38;10.20;99.90
20045;DHT22;10183;47.808;9.476;2023-11-21T13:09:26;12.10;99.90
20045;DHT22;10183;47.808;9.476;2023-11-21T13:12:13;11.80;99.90
20045;DHT22;10183;47.808;9.476;2023-11-21T13:15:05;13.50;99.90
20045;DHT22;10183;47.808;9.476;2023-11-21T13:17:53;10.70;99.90
20045;DHT22;10183;47.808;9.476;2023-11-21T13:20:40;11.70;99.90
20045;DHT22;10183;47.808;9.476;2023-11-21T13:23:26;10.00;99.90
20045;DHT22;10183;47.808;9.476;2023-11-21T13:26:13;9.30;99.90
20045;DHT22;10183;47.808;9.476;2023-11-21T13:29:00;10.30;99.90
20045;DHT22;10183;47.808;9.476;2023-11-21T13:31:50;10.30;99.90
20045;DHT22;10183;47.808;9.476;2023-11-21T13:34:37;9.20;99.90
20045;DHT22;10183;47.808;9.476;2023-11-21T13:37:23;8.60;99.90
20045;DHT22;10183;47.808;9.476;2023-11-21T13:40:11;8.40;99.90
20045;DHT22;10183;47.808;9.476;2023-11-21T13:43:00;8.70;99.90
20045;DHT22;10183;47.808;9.476;2023-11-21T13:45:50;8.50;99.90
20045;DHT22;10183;47.808;9.476;2023-11-21T13:48:41;8.20;99.90
20045;DHT22;10183;47.808;9.476;2023-11-21T13:51:28;8.10;99.90
20045;DHT22;10183;47.808;9.476;2023-11-21T13:54:24;7.60;99.90
20045;DHT22;10183;47.808;9.476;2023-11-21T13:57:11;7.40;99.90
20045;DHT22;10183;47.808;9.476;2023-11-21T13:59:56;7.50;99.90
20045;DHT22;10183;47.808;9.476;2023-11-21T14:02:44;7.50;99.90
20045;DHT22;10183;47.808;9.476;2023-11-21T14:05:31;7.30;99.90
20045;DHT22;10183;47.808;9.476;2023-11-21T14:08:20;7.10;99.90
20045;DHT22;10183;47.808;9.476;2023-11-21T14:11:07;7.10;99.90
20045;DHT22;10183;47.808;9.476;2023-11-21T14:13:53;7.10;99.90
20045;DHT22;10183;47.808;9.476;2023-11-21T14:16:39;7.10;99.90
20045;DHT22;10183;47.808;9.476;2023-11-21T14:19:25;7.00;99.90
20045;DHT22;10183;47.808;9.476;2023-11-21T14:22:17;6.90;99.90
20045;DHT22;10183;47.808;9.476;2023-11-21T14:25:04;6.80;99.90
20045;DHT22;10183;47.808;9.476;2023-11-21T14:27:50;6.80;99.90
20045;DHT22;10183;47.808;9.476;2023-11-21T14:30:37;6.90;99.90
20045;DHT22;10183;47.808;9.476;2023-11-21T14:33:25;6.90;99.90
20045;DHT22;10183;47.808;9.476;2023-11-21T14:36:11;6.90;99.90
20045;DHT22;10183;47.808;9.476;2023-11-21T14:38:57;6.90;99.90
20045;DHT22;10183;47.808;9.476;2023-11-21T14:41:43;6.80;99.90
20045;DHT22;10183;47.808;9.476;2023-11-21T14:44:29;6.80;99.90
20045;DHT22;10183;47.808;9.476;2023-11-21T14:47:21;6.70;99.90
20045;DHT22;10183;47.808;9.476;2023-11-21T14:50:12;6.70;99.90
20045;DHT22;10183;47.808;9.476;2023-11-21T14:53:21;6.60;99.90
20045;DHT22;10183;47.808;9.476;2023-11-21T14:56:27;6.80;99.90
20045;DHT22;10183;47.808;9.476;2023-11-21T14:59:16;6.90;99.90
20045;DHT22;10183;47.808;9.476;2023-11-21T15:02:03;7.00;99.90
20045;DHT22;10183;47.808;9.476;2023-11-21T15:05:02;7.10;99.90
20045;DHT22;10183;47.808;9.476;2023-11-21T15:07:48;7.20;99.90
20045;DHT22;10183;47.808;9.476;2023-11-21T15:10:35;7.30;99.90
20045;DHT22;10183;47.808;9.476;2023-11-21T15:13:31;7.00;99.90
20045;DHT22;10183;47.808;9.476;2023-11-21T15:16:17;6.70;99.90
20045;DHT22;10183;47.808;9.476;2023-11-21T15:19:04;6.60;99.90
20045;DHT22;10183;47.808;9.476;2023-11-21T15:21:51;6.50;99.90
20045;DHT22;10183;47.808;9.476;2023-11-21T15:24:37;6.50;99.90
20045;DHT22;10183;47.808;9.476;2023-11-21T15:27:23;6.50;99.90
20045;DHT22;10183;47.808;9.476;2023-11-21T15:30:10;6.60;99.90
20045;DHT22;10183;47.808;9.476;2023-11-21T15:32:56;6.70;99.90
20045;DHT22;10183;47.808;9.476;2023-11-21T15:35:42;6.80;99.90
20045;DHT22;10183;47.808;9.476;2023-11-21T15:38:28;6.70;99.90
20045;DHT22;10183;47.808;9.476;2023-11-21T15:41:14;6.50;99.90
20045;DHT22;10183;47.808;9.476;2023-11-21T15:44:00;6.50;99.90
20045;DHT22;10183;47.808;9.476;2023-11-21T15:46:46;6.50;99.90
20045;DHT22;10183;47.808;9.476;2023-11-21T15:49:33;6.50;99.90
20045;DHT22;10183;47.808;9.476;2023-11-21T15:52:22;6.50;99.90
20045;DHT22;10183;47.808;9.476;2023-11-21T15:55:08;6.60;99.90
20045;DHT22;10183;47.808;9.476;2023-11-21T15:57:55;6.40;99.90
20045;DHT22;10183;47.808;9.476;2023-11-21T16:00:41;6.50;99.90
20045;DHT22;10183;47.808;9.476;2023-11-21T16:03:27;6.50;99.90
20045;DHT22;10183;47.808;9.476;2023-11-21T16:06:14;6.40;99.90
20045;DHT22;10183;47.808;9.476;2023-11-21T16:09:01;6.40;99.90
20045;DHT22;10183;47.808;9.476;2023-11-21T16:11:47;6.40;99.90
20045;DHT22;10183;47.808;9.476;2023-11-21T16:14:35;6.40;99.90
20045;DHT22;10183;47.808;9.476;2023-11-21T16:17:24;6.40;99.90
20045;DHT22;10183;47.808;9.476;2023-11-21T16:20:10;6.40;99.90
20045;DHT22;10183;47.808;9.476;2023-11-21T16:22:58;6.30;99.90
20045;DHT22;10183;47.808;9.476;2023-11-21T16:25:44;6.30;99.90
20045;DHT22;10183;47.808;9.476;2023-11-21T16:28:30;6.30;99.90
20045;DHT22;10183;47.808;9.476;2023-11-21T16:31:23;6.20;99.90
20045;DHT22;10183;47.808;9.476;2023-11-21T16:34:13;6.30;99.90
20045;DHT22;10183;47.808;9.476;2023-11-21T16:36:59;6.30;99.90
20045;DHT22;10183;47.808;9.476;2023-11-21T16:39:45;6.20;99.90
20045;DHT22;10183;47.808;9.476;2023-11-21T16:42:33;6.20;99.90
20045;DHT22;10183;47.808;9.476;2023-11-21T16:45:20;6.20;99.90
20045;DHT22;10183;47.808;9.476;2023-11-21T16:48:06;6.20;99.90
20045;DHT22;10183;47.808;9.476;2023-11-21T16:50:53;6.20;99.90
20045;DHT22;10183;47.808;9.476;2023-11-21T16:53:39;6.10;99.90
20045;DHT22;10183;47.808;9.476;2023-11-21T16:56:28;6.10;99.90
20045;DHT22;10183;47.808;9.476;2023-11-21T16:59:14;6.10;99.90
20045;DHT22;10183;47.808;9.476;2023-11-21T17:02:00;6.00;99.90
20045;DHT22;10183;47.808;9.476;2023-11-21T17:04:47;6.00;99.90
20045;DHT22;10183;47.808;9.476;2023-11-21T17:07:35;6.00;99.90
20045;DHT22;10183;47.808;9.476;2023-11-21T17:10:21;6.10;99.90
20045;DHT22;10183;47.808;9.476;2023-11-21T17:13:07;6.20;99.90
20045;DHT22;10183;47.808;9.476;2023-11-21T17:15:53;6.20;99.90
20045;DHT22;10183;47.808;9.476;2023-11-21T17:18:40;6.10;99.90
20045;DHT22;10183;47.808;9.476;2023-11-21T17:21:25;6.00;99.90
20045;DHT22;10183;47.808;9.476;2023-11-21T17:24:13;6.10;99.90
20045;DHT22;10183;47.808;9.476;2023-11-21T17:26:59;6.10;99.90
20045;DHT22;10183;47.808;9.476;2023-11-21T17:29:45;6.00;99.90
20045;DHT22;10183;47.808;9.476;2023-11-21T17:32:31;6.00;99.90
20045;DHT22;10183;47.808;9.476;2023-11-21T17:35:17;6.00;99.90
20045;DHT22;10183;47.808;9.476;2023-11-21T17:38:03;6.00;99.90
20045;DHT22;10183;47.808;9.476;2023-11-21T17:40:50;5.90;99.90
20045;DHT22;10183;47.808;9.476;2023-11-21T17:43:37;5.80;99.90
20045;DHT22;10183;47.808;9.476;2023-11-21T17:46:26;5.80;99.90
20045;DHT22;10183;47.808;9.476;2023-11-21T17:49:12;5.80;99.90
20045;DHT22;10183;47.808;9.476;2023-11-21T17:51:58;5.90;99.90
20045;DHT22;10183;47.808;9.476;2023-11-21T17:54:44;5.90;99.90
20045;DHT22;10183;47.808;9.476;2023-11-21T17:57:30;6.00;99.90
20045;DHT22;10183;47.808;9.476;2023-11-21T18:00:16;6.00;99.90
20045;DHT22;10183;47.808;9.476;2023-11-21T18:03:02;6.00;99.90
20045;DHT22;10183;47.808;9.476;2023-11-21T18:05:49;6.00;99.90